sensor_id;sensor_type;location;lat;lon;timestamp;temperature;humidity
12771;DHT22;6449;47.666;9.160;2023-12-29T00:04:35;3.20;99.90
12771;DHT22;6449;47.666;9.160;2023-12-29T00:09:31;3.20;99.90
12771;DHT22;6449;47.666;9.160;2023-12-29T00:14:30;3.20;99.90
12771;DHT22;6449;47.666;9.160;2023-12-29T00:19:24;3.30;99.90
12771;DHT22;6449;47.666;9.160;2023-12-29T00:24:17;3.40;99.90
12771;DHT22;6449;47.666;9.160;2023-12-29T00:29:13;3.70;99.90
12771;DHT22;6449;47.666;9.160;2023-12-29T00:34:07;3.90;99.90
12771;DHT22;6449;47.666;9.160;2023-12-29T00:39:01;4.00;99.90
12771;DHT22;6449;47.666;9.160;2023-12-29T00:43:54;4.00;99.90
12771;DHT22;6449;47.666;9.160;2023-12-29T00:48:49;4.00;99.90
12771;DHT22;6449;47.666;9.160;2023-12-29T00:53:42;4.00;99.90
12771;DHT22;6449;47.666;9.160;2023-12-29T00:58:36;4.10;99.90
12771;DHT22;6449;47.666;9.160;2023-12-29T01:03:29;4.20;99.90
12771;DHT22;6449;47.666;9.160;2023-12-29T01:08:24;4.20;99.90
12771;DHT22;6449;47.666;9.160;2023-12-29T01:13:18;4.20;99.90
12771;DHT22;6449;47.666;9.160;2023-12-29T01:18:14;4.20;99.90
12771;DHT22;6449;47.666;9.160;2023-12-29T01:23:10;4.10;99.90
12771;DHT22;6449;47.666;9.160;2023-12-29T01:28:07;4.00;99.90
12771;DHT22;6449;47.666;9.160;2023-12-29T01:33:01;4.00;99.90
12771;DHT22;6449;47.666;9.160;2023-12-29T01:37:54;4.00;99.90
12771;DHT22;6449;47.666;9.160;2023-12-29T01:42:50;4.00;99.90
12771;DHT22;6449;47.666;9.160;2023-12-29T01:47:44;3.90;99.90
12771;DHT22;6449;47.666;9.160;2023-12-29T01:52:39;3.90;99.90
12771;DHT22;6449;47.666;9.160;2023-12-29T01:57:38;3.90;99.90
12771;DHT22;6449;47.666;9.160;2023-12-29T02:02:32;3.80;99.90
12771;DHT22;6449;47.666;9.160;2023-12-29T02:07:29;3.70;99.90
12771;DHT22;6449;47.666;9.160;2023-12-29T02:12:25;3.70;99.90
12771;DHT22;6449;47.666;9.160;2023-12-29T02:17:24;3.80;99.90
12771;DHT22;6449;47.666;9.160;2023-12-29T02:22:19;3.80;99.90
12771;DHT22;6449;47.666;9.160;2023-12-29T02:27:21;3.70;99.90
12771;DHT22;6449;47.666;9.160;2023-12-29T02:32:27;3.60;99.90
12771;DHT22;6449;47.666;9.160;2023-12-29T02:37:23;3.60;99.90
12771;DHT22;6449;47.666;9.160;2023-12-29T02:42:19;3.50;99.90
12771;DHT22;6449;47.666;9.160;2023-12-29T02:47:13;3.50;99.90
12771;DHT22;6449;47.666;9.160;2023-12-29T02:52:08;3.60;99.90
12771;DHT22;6449;47.666;9.160;2023-12-29T02:57:02;3.60;99.90
12771;DHT22;6449;47.666;9.160;2023-12-29T03:01:57;3.60;99.90
12771;DHT22;6449;47.666;9.160;2023-12-29T03:06:51;3.50;99.90
12771;DHT22;6449;47.666;9.160;2023-12-29T03:11:44;3.50;99.90
12771;DHT22;6449;47.666;9.160;2023-12-29T03:16:38;3.50;99.90
12771;DHT22;6449;47.666;9.160;2023-12-29T03:21:33;3.60;99.90
12771;DHT22;6449;47.666;9.160;2023-12-29T03:26:29;3.50;99.90
12771;DHT22;6449;47.666;9.160;2023-12-29T03:31:22;3.50;99.90
12771;DHT22;6449;47.666;9.160;2023-12-29T03:36:16;3.40;99.90
12771;DHT22;6449;47.666;9.160;2023-12-29T03:41:11;3.50;99.90
12771;DHT22;6449;47.666;9.160;2023-12-29T03:46:15;3.50;99.90
12771;DHT22;6449;47.666;9.160;2023-12-29T03:51:09;3.50;99.90
12771;DHT22;6449;47.666;9.160;2023-12-29T03:56:04;3.50;99.90
12771;DHT22;6449;47.666;9.160;2023-12-29T04:00:59;3.50;99.90
12771;DHT22;6449;47.666;9.160;2023-12-29T04:05:53;3.60;99.90
12771;DHT22;6449;47.666;9.160;2023-12-29T04:10:46;3.60;99.90
12771;DHT22;6449;47.666;9.160;2023-12-29T04:15:40;3.70;99.90
12771;DHT22;6449;47.666;9.160;2023-12-29T04:20:34;3.80;99.90
12771;DHT22;6449;47.666;9.160;2023-12-29T04:25:28;3.90;99.90
12771;DHT22;6449;47.666;9.160;2023-12-29T04:30:21;3.90;99.90
12771;DHT22;6449;47.666;9.160;2023-12-29T04:35:14;4.00;99.90
12771;DHT22;6449;47.666;9.160;2023-12-29T04:40:10;4.00;99.90
12771;DHT22;6449;47.666;9.160;2023-12-29T04:45:05;4.10;99.90
12771;DHT22;6449;47.666;9.160;2023-12-29T04:49:58;4.10;99.90
12771;DHT22;6449;47.666;9.160;2023-12-29T04:54:52;4.10;99.90
12771;DHT22;6449;47.666;9.160;2023-12-29T04:59:47;4.20;99.90
12771;DHT22;6449;47.666;9.160;2023-12-29T05:04:41;4.20;99.90
12771;DHT22;6449;47.666;9.160;2023-12-29T05:09:34;4.20;99.90
12771;DHT22;6449;47.666;9.160;2023-12-29T05:14:30;4.30;99.90
12771;DHT22;6449;47.666;9.160;2023-12-29T05:19:25;4.30;99.90
12771;DHT22;6449;47.666;9.160;2023-12-29T05:24:20;4.40;99.90
12771;DHT22;6449;47.666;9.160;2023-12-29T05:29:14;4.40;99.90
12771;DHT22;6449;47.666;9.160;2023-12-29T05:34:08;4.40;99.90
12771;DHT22;6449;47.666;9.160;2023-12-29T05:39:11;4.40;99.90
12771;DHT22;6449;47.666;9.160;2023-12-29T05:44:07;4.40;99.90
12771;DHT22;6449;47.666;9.160;2023-12-29T05:49:05;4.40;99.90
12771;DHT22;6449;47.666;9.160;2023-12-29T05:54:01;4.50;99.90
12771;DHT22;6449;47.666;9.160;2023-12-29T05:58:56;4.50;99.90
12771;DHT22;6449;47.666;9.160;2023-12-29T06:03:52;4.60;99.90
12771;DHT22;6449;47.666;9.160;2023-12-29T06:08:46;4.60;99.90
12771;DHT22;6449;47.666;9.160;2023-12-29T06:13:42;4.70;99.90
12771;DHT22;6449;47.666;9.160;2023-12-29T06:18:37;4.70;99.90
12771;DHT22;6449;47.666;9.160;2023-12-29T06:23:31;4.70;99.90
12771;DHT22;6449;47.666;9.160;2023-12-29T06:28:24;4.80;99.90
12771;DHT22;6449;47.666;9.160;2023-12-29T06:33:18;4.80;99.90
12771;DHT22;6449;47.666;9.160;2023-12-29T06:38:15;4.90;99.90
12771;DHT22;6449;47.666;9.160;2023-12-29T06:43:08;4.90;99.90
12771;DHT22;6449;47.666;9.160;2023-12-29T06:48:02;5.00;99.90
12771;DHT22;6449;47.666;9.160;2023-12-29T06:52:56;5.10;99.90
12771;DHT22;6449;47.666;9.160;2023-12-29T06:57:51;5.20;99.90
12771;DHT22;6449;47.666;9.160;2023-12-29T07:02:48;5.20;99.90
12771;DHT22;6449;47.666;9.160;2023-12-29T07:07:42;5.20;99.90
12771;DHT22;6449;47.666;9.160;2023-12-29T07:12:35;5.30;99.90
12771;DHT22;6449;47.666;9.160;2023-12-29T07:17:30;5.30;99.90
12771;DHT22;6449;47.666;9.160;2023-12-29T07:22:24;5.30;99.90
12771;DHT22;6449;47.666;9.160;2023-12-29T07:27:17;5.30;99.90
12771;DHT22;6449;47.666;9.160;2023-12-29T07:32:11;5.30;99.90
12771;DHT22;6449;47.666;9.160;2023-12-29T07:37:05;5.30;99.90
12771;DHT22;6449;47.666;9.160;2023-12-29T07:41:59;5.30;99.90
12771;DHT22;6449;47.666;9.160;2023-12-29T07:46:57;5.30;99.90
12771;DHT22;6449;47.666;9.160;2023-12-29T07:51:50;5.30;99.90
12771;DHT22;6449;47.666;9.160;2023-12-29T07:56:45;5.40;99.90
12771;DHT22;6449;47.666;9.160;2023-12-29T08:01:39;5.50;99.90
12771;DHT22;6449;47.666;9.160;2023-12-29T08:06:32;5.60;99.90
12771;DHT22;6449;47.666;9.160;2023-12-29T08:11:26;5.70;99.90
12771;DHT22;6449;47.666;9.160;2023-12-29T08:16:20;5.70;99.90
12771;DHT22;6449;47.666;9.160;2023-12-29T08:21:17;5.70;99.90
12771;DHT22;6449;47.666;9.160;2023-12-29T08:26:11;5.70;99.90
12771;DHT22;6449;47.666;9.160;2023-12-29T08:31:06;5.80;99.90
12771;DHT22;6449;47.666;9.160;2023-12-29T08:36:02;5.80;99.90
12771;DHT22;6449;47.666;9.160;2023-12-29T08:40:56;5.80;99.90
12771;DHT22;6449;47.666;9.160;2023-12-29T08:45:49;5.90;99.90
12771;DHT22;6449;47.666;9.160;2023-12-29T08:50:43;5.90;99.90
12771;DHT22;6449;47.666;9.160;2023-12-29T08:55:38;6.00;99.90
12771;DHT22;6449;47.666;9.160;2023-12-29T09:00:31;6.00;99.90
12771;DHT22;6449;47.666;9.160;2023-12-29T09:05:26;6.10;99.90
12771;DHT22;6449;47.666;9.160;2023-12-29T09:10:19;6.20;99.90
12771;DHT22;6449;47.666;9.160;2023-12-29T09:15:16;6.40;99.90
12771;DHT22;6449;47.666;9.160;2023-12-29T09:20:10;6.50;99.90
12771;DHT22;6449;47.666;9.160;2023-12-29T09:25:07;6.60;99.90
12771;DHT22;6449;47.666;9.160;2023-12-29T09:30:01;6.70;99.90
12771;DHT22;6449;47.666;9.160;2023-12-29T09:34:57;6.70;99.90
12771;DHT22;6449;47.666;9.160;2023-12-29T09:39:50;6.70;99.90
12771;DHT22;6449;47.666;9.160;2023-12-29T09:44:45;6.80;99.90
12771;DHT22;6449;47.666;9.160;2023-12-29T09:49:42;6.80;99.90
12771;DHT22;6449;47.666;9.160;2023-12-29T09:54:39;6.80;99.90
12771;DHT22;6449;47.666;9.160;2023-12-29T09:59:35;6.80;99.90
12771;DHT22;6449;47.666;9.160;2023-12-29T10:04:29;7.00;99.90
12771;DHT22;6449;47.666;9.160;2023-12-29T10:09:24;7.10;99.90
12771;DHT22;6449;47.666;9.160;2023-12-29T10:14:24;7.30;99.90
12771;DHT22;6449;47.666;9.160;2023-12-29T10:19:27;7.30;99.90
12771;DHT22;6449;47.666;9.160;2023-12-29T10:24:30;7.30;99.90
12771;DHT22;6449;47.666;9.160;2023-12-29T10:29:27;7.30;99.90
12771;DHT22;6449;47.666;9.160;2023-12-29T10:34:21;7.50;99.90
12771;DHT22;6449;47.666;9.160;2023-12-29T10:39:21;7.60;99.90
12771;DHT22;6449;47.666;9.160;2023-12-29T10:44:14;7.60;99.90
12771;DHT22;6449;47.666;9.160;2023-12-29T10:49:11;7.70;99.90
12771;DHT22;6449;47.666;9.160;2023-12-29T10:54:06;7.70;99.90
12771;DHT22;6449;47.666;9.160;2023-12-29T10:59:01;7.80;99.90
12771;DHT22;6449;47.666;9.160;2023-12-29T11:03:59;7.70;99.90
12771;DHT22;6449;47.666;9.160;2023-12-29T11:08:57;7.80;99.90
12771;DHT22;6449;47.666;9.160;2023-12-29T11:13:50;8.00;99.90
12771;DHT22;6449;47.666;9.160;2023-12-29T11:18:45;8.10;99.90
12771;DHT22;6449;47.666;9.160;2023-12-29T11:23:39;8.20;99.90
12771;DHT22;6449;47.666;9.160;2023-12-29T11:28:35;8.20;99.90
12771;DHT22;6449;47.666;9.160;2023-12-29T11:33:35;8.30;99.90
12771;DHT22;6449;47.666;9.160;2023-12-29T11:38:43;8.40;99.90
12771;DHT22;6449;47.666;9.160;2023-12-29T11:43:44;8.50;99.90
12771;DHT22;6449;47.666;9.160;2023-12-29T11:48:53;8.70;99.90
12771;DHT22;6449;47.666;9.160;2023-12-29T11:53:48;8.80;99.90
12771;DHT22;6449;47.666;9.160;2023-12-29T11:58:41;8.80;99.90
12771;DHT22;6449;47.666;9.160;2023-12-29T12:03:36;8.80;99.90
12771;DHT22;6449;47.666;9.160;2023-12-29T12:08:31;8.80;99.90
12771;DHT22;6449;47.666;9.160;2023-12-29T12:13:45;8.80;99.90
12771;DHT22;6449;47.666;9.160;2023-12-29T12:18:41;8.70;99.90
12771;DHT22;6449;47.666;9.160;2023-12-29T12:23:36;8.70;99.90
12771;DHT22;6449;47.666;9.160;2023-12-29T12:28:32;8.70;99.90
12771;DHT22;6449;47.666;9.160;2023-12-29T12:33:28;8.60;99.90
12771;DHT22;6449;47.666;9.160;2023-12-29T12:38:23;8.80;99.90
12771;DHT22;6449;47.666;9.160;2023-12-29T12:43:17;9.00;99.90
12771;DHT22;6449;47.666;9.160;2023-12-29T12:48:14;9.20;99.90
12771;DHT22;6449;47.666;9.160;2023-12-29T12:53:15;9.30;99.90
12771;DHT22;6449;47.666;9.160;2023-12-29T12:58:14;9.40;99.90
12771;DHT22;6449;47.666;9.160;2023-12-29T13:03:08;9.40;99.90
12771;DHT22;6449;47.666;9.160;2023-12-29T13:08:02;9.40;99.90
12771;DHT22;6449;47.666;9.160;2023-12-29T13:12:56;9.40;99.90
12771;DHT22;6449;47.666;9.160;2023-12-29T13:17:52;9.50;99.90
12771;DHT22;6449;47.666;9.160;2023-12-29T13:22:47;9.40;99.90
12771;DHT22;6449;47.666;9.160;2023-12-29T13:27:42;9.50;99.90
12771;DHT22;6449;47.666;9.160;2023-12-29T13:32:35;9.40;99.90
12771;DHT22;6449;47.666;9.160;2023-12-29T13:37:35;9.40;99.90
12771;DHT22;6449;47.666;9.160;2023-12-29T13:42:31;9.30;99.90
12771;DHT22;6449;47.666;9.160;2023-12-29T13:47:26;9.20;99.90
12771;DHT22;6449;47.666;9.160;2023-12-29T13:52:20;9.30;99.90
12771;DHT22;6449;47.666;9.160;2023-12-29T13:57:15;9.10;99.90
12771;DHT22;6449;47.666;9.160;2023-12-29T14:02:22;9.00;99.90
12771;DHT22;6449;47.666;9.160;2023-12-29T14:07:20;8.90;99.90
12771;DHT22;6449;47.666;9.160;2023-12-29T14:12:25;8.90;99.90
12771;DHT22;6449;47.666;9.160;2023-12-29T14:17:20;8.80;99.90
12771;DHT22;6449;47.666;9.160;2023-12-29T14:22:21;9.00;99.90
12771;DHT22;6449;47.666;9.160;2023-12-29T14:27:16;8.80;99.90
12771;DHT22;6449;47.666;9.160;2023-12-29T14:32:11;8.90;99.90
12771;DHT22;6449;47.666;9.160;2023-12-29T14:37:05;8.90;99.90
12771;DHT22;6449;47.666;9.160;2023-12-29T14:41:58;8.90;99.90
12771;DHT22;6449;47.666;9.160;2023-12-29T14:46:51;8.80;99.90
12771;DHT22;6449;47.666;9.160;2023-12-29T14:51:46;8.80;99.90
12771;DHT22;6449;47.666;9.160;2023-12-29T14:56:40;8.70;99.90
12771;DHT22;6449;47.666;9.160;2023-12-29T15:01:33;8.60;99.90
12771;DHT22;6449;47.666;9.160;2023-12-29T15:06:26;8.50;99.90
12771;DHT22;6449;47.666;9.160;2023-12-29T15:11:21;8.50;99.90
12771;DHT22;6449;47.666;9.160;2023-12-29T15:16:15;8.60;99.90
12771;DHT22;6449;47.666;9.160;2023-12-29T15:21:09;8.60;99.90
12771;DHT22;6449;47.666;9.160;2023-12-29T15:26:02;8.50;99.90
12771;DHT22;6449;47.666;9.160;2023-12-29T15:30:57;8.40;99.90
12771;DHT22;6449;47.666;9.160;2023-12-29T15:35:51;8.30;99.90
12771;DHT22;6449;47.666;9.160;2023-12-29T15:40:45;8.20;99.90
12771;DHT22;6449;47.666;9.160;2023-12-29T15:45:39;8.20;99.90
12771;DHT22;6449;47.666;9.160;2023-12-29T15:50:34;8.10;99.90
12771;DHT22;6449;47.666;9.160;2023-12-29T15:55:27;8.00;99.90
12771;DHT22;6449;47.666;9.160;2023-12-29T16:00:21;7.90;99.90
12771;DHT22;6449;47.666;9.160;2023-12-29T16:05:15;7.80;99.90
12771;DHT22;6449;47.666;9.160;2023-12-29T16:10:10;7.80;99.90
12771;DHT22;6449;47.666;9.160;2023-12-29T16:15:04;7.90;99.90
12771;DHT22;6449;47.666;9.160;2023-12-29T16:19:58;7.90;99.90
12771;DHT22;6449;47.666;9.160;2023-12-29T16:24:52;8.00;99.90
12771;DHT22;6449;47.666;9.160;2023-12-29T16:29:47;8.00;99.90
12771;DHT22;6449;47.666;9.160;2023-12-29T16:34:40;8.00;99.90
12771;DHT22;6449;47.666;9.160;2023-12-29T16:39:34;8.00;99.90
12771;DHT22;6449;47.666;9.160;2023-12-29T16:44:27;8.00;99.90
12771;DHT22;6449;47.666;9.160;2023-12-29T16:49:22;7.90;99.90
12771;DHT22;6449;47.666;9.160;2023-12-29T16:54:21;7.90;99.90
12771;DHT22;6449;47.666;9.160;2023-12-29T16:59:14;7.90;99.90
12771;DHT22;6449;47.666;9.160;2023-12-29T17:04:08;7.90;99.90
12771;DHT22;6449;47.666;9.160;2023-12-29T17:09:06;8.00;99.90
12771;DHT22;6449;47.666;9.160;2023-12-29T17:14:00;8.20;99.90
12771;DHT22;6449;47.666;9.160;2023-12-29T17:18:53;8.30;99.90
12771;DHT22;6449;47.666;9.160;2023-12-29T17:23:47;8.20;99.90
12771;DHT22;6449;47.666;9.160;2023-12-29T17:28:41;8.30;99.90
12771;DHT22;6449;47.666;9.160;2023-12-29T17:33:35;8.30;99.90
12771;DHT22;6449;47.666;9.160;2023-12-29T17:38:28;8.30;99.90
12771;DHT22;6449;47.666;9.160;2023-12-29T17:43:22;8.30;99.90
12771;DHT22;6449;47.666;9.160;2023-12-29T17:48:16;8.30;99.90
12771;DHT22;6449;47.666;9.160;2023-12-29T17:53:10;8.20;99.90
12771;DHT22;6449;47.666;9.160;2023-12-29T17:58:04;8.10;99.90
12771;DHT22;6449;47.666;9.160;2023-12-29T18:02:57;8.00;99.90
12771;DHT22;6449;47.666;9.160;2023-12-29T18:07:52;7.90;99.90
12771;DHT22;6449;47.666;9.160;2023-12-29T18:12:46;7.80;99.90
12771;DHT22;6449;47.666;9.160;2023-12-29T18:17:40;7.70;99.90
12771;DHT22;6449;47.666;9.160;2023-12-29T18:22:34;7.60;99.90
12771;DHT22;6449;47.666;9.160;2023-12-29T18:27:29;7.60;99.90
12771;DHT22;6449;47.666;9.160;2023-12-29T18:32:25;7.50;99.90
12771;DHT22;6449;47.666;9.160;2023-12-29T18:37:19;7.50;99.90
12771;DHT22;6449;47.666;9.160;2023-12-29T18:42:13;7.50;99.90
12771;DHT22;6449;47.666;9.160;2023-12-29T18:47:08;7.60;99.90
12771;DHT22;6449;47.666;9.160;2023-12-29T18:52:03;7.50;99.90
12771;DHT22;6449;47.666;9.160;2023-12-29T18:56:57;7.40;99.90
12771;DHT22;6449;47.666;9.160;2023-12-29T19:01:53;7.30;99.90
12771;DHT22;6449;47.666;9.160;2023-12-29T19:06:52;7.20;99.90
12771;DHT22;6449;47.666;9.160;2023-12-29T19:11:45;7.10;99.90
12771;DHT22;6449;47.666;9.160;2023-12-29T19:16:39;7.00;99.90
12771;DHT22;6449;47.666;9.160;2023-12-29T19:21:32;7.00;99.90
12771;DHT22;6449;47.666;9.160;2023-12-29T19:26:27;7.00;99.90
12771;DHT22;6449;47.666;9.160;2023-12-29T19:31:21;7.00;99.90
12771;DHT22;6449;47.666;9.160;2023-12-29T19:36:18;7.00;99.90
12771;DHT22;6449;47.666;9.160;2023-12-29T19:41:12;7.00;99.90
12771;DHT22;6449;47.666;9.160;2023-12-29T19:46:10;7.00;99.90
12771;DHT22;6449;47.666;9.160;2023-12-29T19:51:04;7.00;99.90
12771;DHT22;6449;47.666;9.160;2023-12-29T19:55:59;6.90;99.90
12771;DHT22;6449;47.666;9.160;2023-12-29T20:00:52;7.00;99.90
12771;DHT22;6449;47.666;9.160;2023-12-29T20:05:47;6.90;99.90
12771;DHT22;6449;47.666;9.160;2023-12-29T20:10:44;6.90;99.90
12771;DHT22;6449;47.666;9.160;2023-12-29T20:15:38;6.90;99.90
12771;DHT22;6449;47.666;9.160;2023-12-29T20:20:34;6.80;99.90
12771;DHT22;6449;47.666;9.160;2023-12-29T20:25:29;6.70;99.90
12771;DHT22;6449;47.666;9.160;2023-12-29T20:30:27;6.60;99.90
12771;DHT22;6449;47.666;9.160;2023-12-29T20:35:24;6.60;99.90
12771;DHT22;6449;47.666;9.160;2023-12-29T20:40:17;6.50;99.90
12771;DHT22;6449;47.666;9.160;2023-12-29T20:45:12;6.60;99.90
12771;DHT22;6449;47.666;9.160;2023-12-29T20:50:07;6.60;99.90
12771;DHT22;6449;47.666;9.160;2023-12-29T20:55:01;6.60;99.90
12771;DHT22;6449;47.666;9.160;2023-12-29T20:59:56;6.60;99.90
12771;DHT22;6449;47.666;9.160;2023-12-29T21:04:52;6.70;99.90
12771;DHT22;6449;47.666;9.160;2023-12-29T21:09:46;6.80;99.90
12771;DHT22;6449;47.666;9.160;2023-12-29T21:14:41;6.80;99.90
12771;DHT22;6449;47.666;9.160;2023-12-29T21:19:35;6.80;99.90
12771;DHT22;6449;47.666;9.160;2023-12-29T21:24:31;6.90;99.90
12771;DHT22;6449;47.666;9.160;2023-12-29T21:29:24;6.90;99.90
12771;DHT22;6449;47.666;9.160;2023-12-29T21:34:18;7.00;99.90
12771;DHT22;6449;47.666;9.160;2023-12-29T21:39:12;7.00;99.90
12771;DHT22;6449;47.666;9.160;2023-12-29T21:44:09;7.00;99.90
12771;DHT22;6449;47.666;9.160;2023-12-29T21:49:08;7.10;99.90
12771;DHT22;6449;47.666;9.160;2023-12-29T21:54:05;7.10;99.90
12771;DHT22;6449;47.666;9.160;2023-12-29T21:59:01;7.20;99.90
12771;DHT22;6449;47.666;9.160;2023-12-29T22:04:05;7.20;99.90
12771;DHT22;6449;47.666;9.160;2023-12-29T22:09:11;7.20;99.90
12771;DHT22;6449;47.666;9.160;2023-12-29T22:14:08;7.20;99.90
12771;DHT22;6449;47.666;9.160;2023-12-29T22:19:03;7.20;99.90
12771;DHT22;6449;47.666;9.160;2023-12-29T22:23:57;7.20;99.90
12771;DHT22;6449;47.666;9.160;2023-12-29T22:28:51;7.20;99.90
12771;DHT22;6449;47.666;9.160;2023-12-29T22:33:45;7.20;99.90
12771;DHT22;6449;47.666;9.160;2023-12-29T22:38:41;7.10;99.90
12771;DHT22;6449;47.666;9.160;2023-12-29T22:43:35;7.10;99.90
12771;DHT22;6449;47.666;9.160;2023-12-29T22:48:29;7.20;99.90
12771;DHT22;6449;47.666;9.160;2023-12-29T22:53:23;7.20;99.90
12771;DHT22;6449;47.666;9.160;2023-12-29T22:58:18;7.20;99.90
12771;DHT22;6449;47.666;9.160;2023-12-29T23:03:11;7.10;99.90
12771;DHT22;6449;47.666;9.160;2023-12-29T23:08:05;7.10;99.90
12771;DHT22;6449;47.666;9.160;2023-12-29T23:12:59;7.10;99.90
12771;DHT22;6449;47.666;9.160;2023-12-29T23:17:56;7.10;99.90
12771;DHT22;6449;47.666;9.160;2023-12-29T23:22:49;7.20;99.90
12771;DHT22;6449;47.666;9.160;2023-12-29T23:27:43;7.20;99.90
12771;DHT22;6449;47.666;9.160;2023-12-29T23:32:39;7.20;99.90
12771;DHT22;6449;47.666;9.160;2023-12-29T23:37:34;7.20;99.90
12771;DHT22;6449;47.666;9.160;2023-12-29T23:42:28;7.30;99.90
12771;DHT22;6449;47.666;9.160;2023-12-29T23:47:22;7.30;99.90
12771;DHT22;6449;47.666;9.160;2023-12-29T23:52:15;7.30;99.90
12771;DHT22;6449;47.666;9.160;2023-12-29T23:57:10;7.30;99.90
